Time;durP1;ratioP1;P1;durP2;ratioP2;P2;SDS_P1;SDS_P2;PMS_P1;PMS_P2;Temp;Humidity;BMP_temperature;BMP_pressure;BME280_temperature;BME280_humidity;BME280_pressure;Samples;Min_cycle;Max_cycle;Signal;HPM_P1;HPM_P2
2021/12/06 00:01:21;;;;;;;27.83;18.90;;;7.70;99.90;;;;;;5113695;28;20102;-46
2021/12/06 00:03:56;;;;;;;27.55;19.27;;;7.70;99.90;;;;;;5113242;28;20027;-46
2021/12/06 00:06:24;;;;;;;27.92;19.20;;;7.70;99.90;;;;;;5113603;28;20039;-46
2021/12/06 00:08:50;;;;;;;24.30;16.45;;;7.70;99.90;;;;;;5113226;28;20031;-47
2021/12/06 00:11:17;;;;;;;26.48;18.38;;;7.70;99.90;;;;;;5113046;28;20034;-47
2021/12/06 00:13:46;;;;;;;28.58;19.55;;;7.60;99.90;;;;;;5113220;28;20070;-47
2021/12/06 00:16:17;;;;;;;23.35;16.83;;;7.60;99.90;;;;;;5109476;28;20281;-47
2021/12/06 00:18:43;;;;;;;25.20;16.83;;;7.60;99.90;;;;;;5110680;28;20035;-47
2021/12/06 00:21:10;;;;;;;25.88;18.67;;;7.50;99.90;;;;;;5026352;28;20085;-47
2021/12/06 00:23:36;;;;;;;21.35;15.52;;;7.50;99.90;;;;;;5110533;28;20039;-47
2021/12/06 00:26:04;;;;;;;20.73;15.02;;;7.50;99.90;;;;;;5110631;28;20036;-48
2021/12/06 00:28:30;;;;;;;21.65;15.32;;;7.40;99.90;;;;;;5076435;28;20475;-47
2021/12/06 00:30:56;;;;;;;21.08;15.32;;;7.50;99.90;;;;;;5110598;28;20043;-48
2021/12/06 00:33:24;;;;;;;19.92;14.75;;;7.30;99.90;;;;;;5110626;28;20024;-47
2021/12/06 00:35:50;;;;;;;18.70;14.18;;;7.40;99.90;;;;;;5110458;28;20032;-47
2021/12/06 00:38:17;;;;;;;18.60;12.52;;;7.50;99.90;;;;;;5110245;28;20032;-47
2021/12/06 00:40:47;;;;;;;19.08;13.57;;;7.40;99.90;;;;;;5110509;28;20031;-47
2021/12/06 00:43:13;;;;;;;17.67;13.10;;;7.40;99.90;;;;;;5110877;28;20130;-47
2021/12/06 00:45:40;;;;;;;16.95;12.55;;;7.40;99.90;;;;;;5026399;28;20169;-47
2021/12/06 00:48:06;;;;;;;16.75;12.68;;;7.50;99.90;;;;;;5112314;28;20054;-48
2021/12/06 00:50:36;;;;;;;18.80;15.23;;;7.40;99.90;;;;;;5076304;28;20042;-47
2021/12/06 00:53:02;;;;;;;13.43;10.77;;;7.40;99.90;;;;;;5112717;28;20031;-47
2021/12/06 00:55:28;;;;;;;15.52;12.77;;;7.40;99.90;;;;;;5113226;28;20047;-47
2021/12/06 00:57:55;;;;;;;16.95;12.55;;;7.40;99.90;;;;;;5116816;28;20424;-46
2021/12/06 01:00:24;;;;;;;17.17;12.75;;;7.40;99.90;;;;;;5116417;28;20360;-48
2021/12/06 01:02:52;;;;;;;17.10;12.90;;;7.50;99.90;;;;;;5097007;28;20035;-47
2021/12/06 01:05:22;;;;;;;15.45;11.43;;;7.50;99.90;;;;;;5116147;28;20440;-48
2021/12/06 01:07:48;;;;;;;17.40;13.27;;;7.60;99.90;;;;;;5116126;28;20040;-47
2021/12/06 01:10:14;;;;;;;19.75;14.43;;;7.70;99.90;;;;;;5063288;28;20392;-47
2021/12/06 01:12:40;;;;;;;17.88;13.77;;;7.70;99.90;;;;;;5113972;28;20045;-47
2021/12/06 01:15:08;;;;;;;17.55;13.32;;;7.70;99.90;;;;;;5116033;28;20032;-48
2021/12/06 01:17:34;;;;;;;18.02;13.70;;;7.70;99.90;;;;;;5113737;28;20039;-47
2021/12/06 01:20:00;;;;;;;19.20;14.05;;;7.70;99.90;;;;;;5116289;28;20031;-48
2021/12/06 01:22:33;;;;;;;16.83;13.73;;;7.80;99.90;;;;;;5116339;28;20038;-47
2021/12/06 01:25:07;;;;;;;19.38;14.50;;;7.80;99.90;;;;;;5116129;28;20075;-47
2021/12/06 01:30:50;;;;;;;20.65;15.20;;;7.90;99.90;;;;;;5038761;28;20043;-48
2021/12/06 01:41:24;;;;;;;16.65;12.40;;;7.90;99.90;;;;;;5052918;28;20041;-47
2021/12/06 01:44:26;;;;;;;16.45;12.90;;;7.70;99.90;;;;;;5052897;28;20036;-46
2021/12/06 01:46:52;;;;;;;;;;;7.70;99.90;;;;;;5033071;28;20033;-47
2021/12/06 01:49:21;;;;;;;17.05;13.02;;;7.70;99.90;;;;;;5032549;28;20291;-47
2021/12/06 01:51:51;;;;;;;19.58;13.88;;;7.60;99.90;;;;;;5032610;28;20116;-47
2021/12/06 01:54:18;;;;;;;23.77;15.63;;;7.70;99.90;;;;;;5032305;28;20056;-47
2021/12/06 01:56:45;;;;;;;21.00;16.02;;;7.80;99.90;;;;;;5032394;28;20112;-47
2021/12/06 01:59:11;;;;;;;18.58;13.85;;;7.90;99.90;;;;;;5032528;28;20030;-47
2021/12/06 02:01:38;;;;;;;24.52;16.48;;;7.90;99.90;;;;;;5032193;28;20597;-47
2021/12/06 02:04:04;;;;;;;22.88;15.98;;;7.80;99.90;;;;;;5032393;28;20038;-47
2021/12/06 02:06:30;;;;;;;21.40;14.90;;;7.80;99.90;;;;;;5041744;28;20026;-47
2021/12/06 02:08:56;;;;;;;19.92;15.13;;;7.70;99.90;;;;;;5077732;28;20046;-47
2021/12/06 02:11:25;;;;;;;20.55;15.75;;;7.60;99.90;;;;;;5095843;28;20032;-47
2021/12/06 02:14:02;;;;;;;21.15;15.82;;;7.60;99.90;;;;;;5112767;28;20063;-48
2021/12/06 02:17:01;;;;;;;17.88;15.07;;;7.60;99.90;;;;;;5112682;28;20048;-47
2021/12/06 02:19:19;;;;;;;20.88;15.65;;;7.60;99.90;;;;;;5110641;28;20209;-47
2021/12/06 02:21:45;;;;;;;18.63;14.63;;;7.60;99.90;;;;;;5080895;28;20545;-48
2021/12/06 02:24:11;;;;;;;19.55;14.93;;;7.60;99.90;;;;;;5112650;28;20499;-48
2021/12/06 02:26:40;;;;;;;20.00;15.18;;;7.60;99.90;;;;;;5115217;28;20028;-48
2021/12/06 02:29:07;;;;;;;20.70;14.82;;;7.50;99.90;;;;;;5115058;28;20155;-47
2021/12/06 02:31:34;;;;;;;21.25;16.05;;;7.50;99.90;;;;;;5112757;28;20069;-47
2021/12/06 02:34:00;;;;;;;17.35;13.93;;;7.40;99.90;;;;;;5115225;28;20119;-47
2021/12/06 02:36:26;;;;;;;22.58;15.90;;;7.20;99.90;;;;;;5112647;28;20546;-47
2021/12/06 02:38:52;;;;;;;19.40;14.93;;;7.20;99.90;;;;;;5061225;28;20118;-47
2021/12/06 02:41:19;;;;;;;20.23;16.02;;;7.20;99.90;;;;;;5071698;28;20124;-46
2021/12/06 02:43:46;;;;;;;23.73;16.25;;;7.30;99.90;;;;;;5071560;28;20075;-47
2021/12/06 02:46:12;;;;;;;21.40;15.00;;;7.20;99.90;;;;;;5071578;28;20041;-46
2021/12/06 02:48:38;;;;;;;21.02;16.33;;;7.10;99.90;;;;;;5021291;28;20090;-47
2021/12/06 02:51:06;;;;;;;23.85;16.33;;;7.00;99.90;;;;;;5071573;28;20024;-46
2021/12/06 02:53:35;;;;;;;21.85;16.30;;;7.10;99.90;;;;;;5054361;28;20454;-47
2021/12/06 02:56:05;;;;;;;25.27;18.10;;;7.00;99.90;;;;;;5071424;28;20136;-47
2021/12/06 03:01:14;;;;;;;26.13;19.40;;;6.90;99.90;;;;;;5071575;28;20071;-47
2021/12/06 03:03:40;;;;;;;24.80;17.85;;;6.90;99.90;;;;;;5071157;28;20085;-47
2021/12/06 03:06:09;;;;;;;28.40;19.88;;;6.80;99.90;;;;;;5037734;28;20459;-47
2021/12/06 03:08:53;;;;;;;21.50;15.75;;;6.90;99.90;;;;;;5071217;28;20037;-47
2021/12/06 03:11:26;;;;;;;22.98;17.25;;;6.70;99.90;;;;;;5071243;28;20040;-47
2021/12/06 03:13:53;;;;;;;24.20;17.10;;;6.70;99.90;;;;;;5071185;28;20033;-47
2021/12/06 03:16:20;;;;;;;21.08;16.25;;;6.60;99.90;;;;;;5071008;28;20098;-51
2021/12/06 03:18:49;;;;;;;23.88;16.83;;;6.60;99.90;;;;;;5092658;28;20036;-47
2021/12/06 03:21:16;;;;;;;22.45;15.85;;;6.60;99.90;;;;;;5111476;28;20066;-48
2021/12/06 03:23:43;;;;;;;21.58;16.42;;;6.60;99.90;;;;;;5111607;28;20031;-47
2021/12/06 03:26:09;;;;;;;20.67;15.20;;;6.60;99.90;;;;;;5094549;28;20074;-47
2021/12/06 03:28:37;;;;;;;18.83;13.38;;;6.50;99.90;;;;;;5111792;28;20051;-48
2021/12/06 03:31:04;;;;;;;24.48;16.85;;;6.60;99.90;;;;;;5111218;28;20036;-47
2021/12/06 03:33:30;;;;;;;23.02;17.05;;;6.70;99.90;;;;;;5111907;28;20586;-47
2021/12/06 03:35:56;;;;;;;21.80;16.58;;;6.70;99.90;;;;;;5111598;28;20063;-47
2021/12/06 03:38:22;;;;;;;22.02;16.15;;;6.80;99.90;;;;;;5111769;28;20061;-47
2021/12/06 03:40:49;;;;;;;24.60;17.98;;;6.80;99.90;;;;;;5111681;28;20035;-47
2021/12/06 03:43:15;;;;;;;23.83;17.95;;;6.80;99.90;;;;;;5111055;28;20145;-48
2021/12/06 03:45:40;;;;;;;22.55;16.77;;;6.70;99.90;;;;;;5111102;28;20031;-47
2021/12/06 03:48:06;;;;;;;23.63;17.52;;;6.80;99.90;;;;;;5070537;28;20052;-47
2021/12/06 03:50:32;;;;;;;21.33;16.20;;;6.70;99.90;;;;;;5070782;28;20041;-48
2021/12/06 03:52:58;;;;;;;22.33;14.90;;;6.70;99.90;;;;;;5071022;28;20044;-48
2021/12/06 03:55:24;;;;;;;25.27;16.40;;;6.60;99.90;;;;;;5070639;28;20476;-47
2021/12/06 03:57:49;;;;;;;25.33;17.98;;;6.60;99.90;;;;;;5070458;28;20508;-47
2021/12/06 04:00:16;;;;;;;24.58;17.67;;;6.70;99.90;;;;;;5070742;28;20723;-47
2021/12/06 04:02:42;;;;;;;22.33;15.68;;;6.70;99.90;;;;;;5037453;28;20043;-48
2021/12/06 04:05:08;;;;;;;24.83;17.23;;;6.60;99.90;;;;;;5071004;28;20543;-47
2021/12/06 04:07:34;;;;;;;25.40;17.42;;;6.50;99.90;;;;;;5070606;28;20666;-47
2021/12/06 04:10:00;;;;;;;25.75;16.95;;;6.60;99.90;;;;;;5070172;28;20069;-47
2021/12/06 04:12:26;;;;;;;24.67;16.02;;;6.70;99.90;;;;;;5070962;28;20028;-47
2021/12/06 04:14:52;;;;;;;25.30;17.48;;;6.70;99.90;;;;;;5070549;28;20173;-47
2021/12/06 04:17:18;;;;;;;28.45;18.77;;;6.60;99.90;;;;;;5070749;28;20037;-47
2021/12/06 04:19:44;;;;;;;27.40;17.80;;;6.60;99.90;;;;;;5103964;28;20027;-46
2021/12/06 04:22:11;;;;;;;24.38;15.88;;;6.60;99.90;;;;;;5112729;28;20024;-47
2021/12/06 04:24:37;;;;;;;28.77;17.75;;;6.50;99.90;;;;;;5111757;28;20096;-47
2021/12/06 04:27:13;;;;;;;24.38;17.13;;;6.60;99.90;;;;;;5111365;28;20036;-47
2021/12/06 04:29:43;;;;;;;29.08;16.95;;;6.60;99.90;;;;;;5113518;28;20063;-47
2021/12/06 04:32:09;;;;;;;28.70;18.85;;;6.60;99.90;;;;;;5110523;28;20036;-48
2021/12/06 04:34:35;;;;;;;21.70;13.77;;;6.70;99.90;;;;;;5112898;28;20027;-47
2021/12/06 04:37:01;;;;;;;25.10;16.90;;;6.50;99.90;;;;;;5113525;28;20035;-47
2021/12/06 04:39:28;;;;;;;24.42;16.33;;;6.50;99.90;;;;;;5043295;28;20386;-47
2021/12/06 04:41:54;;;;;;;26.33;17.10;;;6.60;99.90;;;;;;5113318;28;20024;-46
2021/12/06 04:44:20;;;;;;;27.73;17.63;;;6.60;99.90;;;;;;5093598;28;20043;-47
2021/12/06 04:46:47;;;;;;;28.80;17.88;;;6.60;99.90;;;;;;5106991;28;20036;-47
2021/12/06 04:49:12;;;;;;;26.38;17.80;;;6.80;99.90;;;;;;5112518;28;20491;-47
2021/12/06 04:51:41;;;;;;;26.30;17.13;;;6.70;99.90;;;;;;5113068;28;20084;-47
2021/12/06 04:54:07;;;;;;;25.13;16.25;;;6.70;99.90;;;;;;5106363;28;20028;-47
2021/12/06 04:56:37;;;;;;;27.05;17.13;;;6.50;99.90;;;;;;5092672;28;20383;-47
2021/12/06 04:59:05;;;;;;;20.50;13.85;;;6.60;99.90;;;;;;5091984;28;20089;-47
2021/12/06 05:01:33;;;;;;;18.27;12.85;;;6.60;99.90;;;;;;5092018;28;20057;-46
2021/12/06 05:04:05;;;;;;;20.95;14.05;;;6.60;99.90;;;;;;5092401;28;20032;-47
2021/12/06 05:06:34;;;;;;;19.38;13.73;;;6.50;99.90;;;;;;5072538;28;20043;-47
2021/12/06 05:09:12;;;;;;;19.92;13.85;;;6.50;99.90;;;;;;5071426;28;20046;-47
2021/12/06 05:11:38;;;;;;;18.70;12.88;;;6.60;99.90;;;;;;5065793;28;20052;-48
2021/12/06 05:14:05;;;;;;;15.55;11.38;;;6.70;99.90;;;;;;5090143;28;20082;-46
2021/12/06 05:16:33;;;;;;;14.35;11.35;;;6.70;99.90;;;;;;5088799;28;20151;-48
2021/12/06 05:18:59;;;;;;;15.85;10.95;;;6.70;99.90;;;;;;5088072;28;20546;-47
2021/12/06 05:21:25;;;;;;;15.48;10.63;;;6.60;99.90;;;;;;5089731;28;20044;-47
2021/12/06 05:23:51;;;;;;;14.30;10.35;;;6.60;99.90;;;;;;5090089;28;20032;-47
2021/12/06 05:26:18;;;;;;;17.35;11.45;;;6.60;99.90;;;;;;5089042;28;20436;-47
2021/12/06 05:28:46;;;;;;;13.73;10.48;;;6.60;99.90;;;;;;5088187;28;20035;-46
2021/12/06 05:31:15;;;;;;;16.58;12.45;;;6.60;99.90;;;;;;5089844;28;20040;-47
2021/12/06 05:33:44;;;;;;;13.70;9.90;;;6.60;99.90;;;;;;5089943;28;20043;-47
2021/12/06 05:36:10;;;;;;;12.93;9.48;;;6.50;99.90;;;;;;5089961;28;20028;-46
2021/12/06 05:38:37;;;;;;;9.15;6.80;;;6.40;99.90;;;;;;5096137;28;20399;-46
2021/12/06 05:41:04;;;;;;;11.18;7.85;;;6.20;99.90;;;;;;5097199;28;20449;-47
2021/12/06 05:43:29;;;;;;;13.57;10.20;;;6.10;99.90;;;;;;5096458;28;20722;-47
2021/12/06 05:45:56;;;;;;;12.82;10.02;;;6.30;99.90;;;;;;5100974;28;20110;-47
2021/12/06 05:48:22;;;;;;;12.90;10.13;;;6.10;99.90;;;;;;5115827;28;20595;-67
2021/12/06 05:50:48;;;;;;;14.18;10.90;;;6.20;99.90;;;;;;5116891;28;20031;-47
2021/12/06 05:53:15;;;;;;;14.50;11.20;;;6.20;99.90;;;;;;5112170;27;20047;-47
2021/12/06 05:55:42;;;;;;;12.43;9.05;;;6.10;99.90;;;;;;5115916;28;20038;-47
2021/12/06 05:58:09;;;;;;;13.35;9.65;;;6.20;99.90;;;;;;5116296;28;20027;-47
2021/12/06 06:00:36;;;;;;;14.18;10.18;;;6.10;99.90;;;;;;5114162;28;20153;-47
2021/12/06 06:03:05;;;;;;;11.52;9.77;;;6.10;99.90;;;;;;5114299;28;20028;-48
2021/12/06 06:05:33;;;;;;;13.63;10.82;;;6.00;99.90;;;;;;5108586;27;20027;-47
2021/12/06 06:07:59;;;;;;;13.40;9.98;;;6.10;99.90;;;;;;5093002;28;20052;-47
2021/12/06 06:10:25;;;;;;;13.05;10.05;;;6.10;99.90;;;;;;5104232;28;20023;-46
2021/12/06 06:12:51;;;;;;;15.35;11.43;;;6.20;99.90;;;;;;5059045;28;20395;-47
2021/12/06 06:15:16;;;;;;;12.93;10.85;;;6.20;99.90;;;;;;5110137;27;20075;-49
2021/12/06 06:17:43;;;;;;;12.45;10.35;;;6.30;99.90;;;;;;5107700;28;20040;-46
2021/12/06 06:20:25;;;;;;;14.52;9.88;;;6.30;99.90;;;;;;5112977;28;20036;-46
2021/12/06 06:22:51;;;;;;;8.25;6.53;;;6.10;99.90;;;;;;5115399;27;20036;-46
2021/12/06 06:25:17;;;;;;;15.48;9.20;;;5.80;99.90;;;;;;5115843;28;20032;-47
2021/12/06 06:27:46;;;;;;;11.07;8.82;;;5.70;99.90;;;;;;5093500;28;20244;-46
2021/12/06 06:30:14;;;;;;;10.75;8.07;;;5.70;99.90;;;;;;5111374;27;20028;-46
2021/12/06 06:32:41;;;;;;;13.70;10.65;;;5.60;99.90;;;;;;5111760;28;20544;-47
2021/12/06 06:35:08;;;;;;;11.18;8.18;;;5.70;99.90;;;;;;5087369;28;20034;-46
2021/12/06 06:37:34;;;;;;;12.18;9.63;;;5.70;99.90;;;;;;5114597;28;20597;-46
2021/12/06 06:40:00;;;;;;;11.73;8.40;;;5.70;99.90;;;;;;5095845;28;20043;-46
2021/12/06 06:42:27;;;;;;;12.75;9.55;;;5.80;99.90;;;;;;5114779;28;20513;-46
2021/12/06 06:44:54;;;;;;;12.43;8.85;;;5.70;99.90;;;;;;5114534;27;20019;-46
2021/12/06 06:47:21;;;;;;;12.85;9.98;;;5.70;99.90;;;;;;5075610;28;20058;-46
2021/12/06 06:49:47;;;;;;;7.88;5.65;;;5.60;99.90;;;;;;5107458;27;20019;-46
2021/12/06 06:52:14;;;;;;;16.70;12.30;;;5.60;99.90;;;;;;5114415;28;20471;-46
2021/12/06 06:54:40;;;;;;;12.50;9.52;;;5.70;99.90;;;;;;5055396;28;20135;-46
2021/12/06 06:57:06;;;;;;;15.20;10.52;;;5.70;99.90;;;;;;5090965;28;20036;-46
2021/12/06 06:59:32;;;;;;;17.25;11.63;;;5.50;99.90;;;;;;5086888;28;20503;-46
2021/12/06 07:01:58;;;;;;;15.73;10.95;;;5.60;99.90;;;;;;5091292;28;20057;-46
2021/12/06 07:04:24;;;;;;;19.65;13.57;;;5.60;99.90;;;;;;5092023;28;20028;-46
2021/12/06 07:06:51;;;;;;;20.92;13.77;;;5.70;99.90;;;;;;5040040;28;20044;-46
2021/12/06 07:09:17;;;;;;;18.65;12.93;;;5.70;99.90;;;;;;5090336;28;20568;-46
2021/12/06 07:11:45;;;;;;;21.08;14.60;;;5.60;99.90;;;;;;5089563;28;20060;-46
2021/12/06 07:14:13;;;;;;;27.45;15.57;;;5.60;99.90;;;;;;5089433;28;20544;-46
2021/12/06 07:16:39;;;;;;;28.42;17.15;;;5.60;99.90;;;;;;5090989;28;20056;-46
2021/12/06 07:19:05;;;;;;;24.55;16.48;;;5.70;99.90;;;;;;5091010;28;20518;-46
2021/12/06 07:21:30;;;;;;;37.20;24.27;;;5.70;99.90;;;;;;5089815;28;20111;-46
2021/12/06 07:23:56;;;;;;;25.55;15.68;;;5.80;99.90;;;;;;5022265;28;20028;-46
2021/12/06 07:26:22;;;;;;;26.92;16.00;;;5.70;99.90;;;;;;5054883;28;20046;-46
2021/12/06 07:28:51;;;;;;;33.60;21.42;;;5.60;99.90;;;;;;5089124;28;20060;-46
2021/12/06 07:31:17;;;;;;;28.20;17.65;;;5.50;99.90;;;;;;5095164;28;20047;-46
2021/12/06 07:33:46;;;;;;;30.83;19.08;;;5.40;99.90;;;;;;5111917;28;20043;-45
2021/12/06 07:36:12;;;;;;;18.05;11.43;;;5.60;99.90;;;;;;5113754;28;20411;-46
2021/12/06 07:38:38;;;;;;;25.15;15.15;;;5.60;99.90;;;;;;5111500;28;20035;-47
2021/12/06 07:41:08;;;;;;;26.05;15.80;;;5.60;99.90;;;;;;5113894;28;20028;-46
2021/12/06 07:43:34;;;;;;;26.63;16.20;;;5.60;99.90;;;;;;5111761;28;20034;-46
2021/12/06 07:46:01;;;;;;;28.98;18.75;;;5.70;99.90;;;;;;5114073;28;20107;-46
2021/12/06 07:48:27;;;;;;;26.80;17.20;;;5.80;99.90;;;;;;5090885;28;20051;-46
2021/12/06 07:50:53;;;;;;;28.02;16.70;;;5.70;99.90;;;;;;5073600;28;20481;-45
2021/12/06 07:53:19;;;;;;;26.38;17.27;;;5.80;99.90;;;;;;5090933;28;20392;-46
2021/12/06 07:55:45;;;;;;;62.55;38.47;;;5.90;99.90;;;;;;5090859;28;20036;-46
2021/12/06 07:58:10;;;;;;;67.50;38.53;;;6.00;99.90;;;;;;5090533;28;20050;-46
2021/12/06 08:00:44;;;;;;;289.13;150.90;;;5.80;99.90;;;;;;5090603;28;20036;-46
2021/12/06 08:03:10;;;;;;;91.82;57.45;;;5.80;99.90;;;;;;5090255;28;20057;-47
2021/12/06 08:05:38;;;;;;;93.07;72.82;;;5.80;99.90;;;;;;5089759;28;20036;-47
2021/12/06 08:08:14;;;;;;;32.22;20.88;;;5.90;99.90;;;;;;5090329;28;20127;-46
2021/12/06 08:10:44;;;;;;;29.70;20.08;;;5.90;99.90;;;;;;5073290;28;20495;-46
2021/12/06 08:13:13;;;;;;;29.10;18.58;;;5.80;99.90;;;;;;5088226;28;20085;-46
2021/12/06 08:15:39;;;;;;;32.85;21.85;;;5.90;99.90;;;;;;5073305;28;20480;-47
2021/12/06 08:18:06;;;;;;;29.45;19.50;;;6.00;99.90;;;;;;5090162;28;20028;-48
2021/12/06 08:20:33;;;;;;;28.95;19.10;;;6.20;99.90;;;;;;5112025;28;20115;-46
2021/12/06 08:22:59;;;;;;;30.98;20.40;;;6.40;99.90;;;;;;5093949;28;20036;-47
2021/12/06 08:25:25;;;;;;;23.27;16.88;;;6.40;99.90;;;;;;5113271;28;20088;-47
2021/12/06 08:27:52;;;;;;;17.75;13.85;;;6.30;99.90;;;;;;5113131;28;20048;-47
2021/12/06 08:30:22;;;;;;;18.17;12.45;;;6.30;99.90;;;;;;5115173;28;20053;-50
2021/12/06 08:32:50;;;;;;;20.20;13.65;;;6.20;99.90;;;;;;5117513;28;20066;-56
2021/12/06 08:35:16;;;;;;;16.92;12.35;;;6.10;99.90;;;;;;5097509;28;20402;-45
2021/12/06 08:37:43;;;;;;;16.40;12.15;;;6.00;99.90;;;;;;5077991;28;20036;-45
2021/12/06 08:40:10;;;;;;;13.25;9.57;;;6.00;99.90;;;;;;5092196;28;20031;-45
2021/12/06 08:42:35;;;;;;;14.18;10.65;;;5.90;99.90;;;;;;5076393;28;20028;-45
2021/12/06 08:45:03;;;;;;;26.88;16.27;;;5.80;99.90;;;;;;5099447;28;20058;-45
2021/12/06 08:47:28;;;;;;;28.23;17.35;;;5.70;99.90;;;;;;5112399;28;20064;-45
2021/12/06 08:49:54;;;;;;;16.17;11.98;;;5.70;99.90;;;;;;5113926;28;20080;-51
2021/12/06 08:52:20;;;;;;;14.77;10.60;;;5.70;99.90;;;;;;5076822;28;20038;-46
2021/12/06 08:54:46;;;;;;;14.25;11.30;;;5.80;99.90;;;;;;5113053;28;20035;-46
2021/12/06 08:57:12;;;;;;;12.75;10.32;;;5.80;99.90;;;;;;5059639;28;20036;-48
2021/12/06 08:59:38;;;;;;;10.75;8.63;;;5.80;99.90;;;;;;5112892;28;20024;-48
2021/12/06 09:02:05;;;;;;;6.82;5.63;;;5.80;99.90;;;;;;5113175;28;20043;-47
2021/12/06 09:04:34;;;;;;;10.63;8.45;;;5.60;99.90;;;;;;5113233;28;20590;-47
2021/12/06 09:07:10;;;;;;;13.48;10.32;;;5.70;99.90;;;;;;5112116;28;20053;-46
2021/12/06 09:09:36;;;;;;;12.65;9.05;;;5.70;99.90;;;;;;5087248;28;20048;-47
2021/12/06 09:12:02;;;;;;;10.63;8.70;;;5.70;99.90;;;;;;5088495;28;20065;-48
2021/12/06 09:14:28;;;;;;;8.45;7.07;;;5.60;99.90;;;;;;5072632;28;20066;-48
2021/12/06 09:16:55;;;;;;;9.10;7.03;;;5.50;99.90;;;;;;5086730;28;20048;-47
2021/12/06 09:19:21;;;;;;;7.90;6.45;;;5.50;99.90;;;;;;5093918;28;20535;-48
2021/12/06 09:21:47;;;;;;;6.43;4.75;;;5.50;99.90;;;;;;5094520;28;20115;-57
2021/12/06 09:24:19;;;;;;;10.60;9.00;;;5.40;99.90;;;;;;5074745;28;20127;-47
2021/12/06 09:26:46;;;;;;;;;;;5.40;99.90;;;;;;5093882;28;20073;-49
2021/12/06 09:29:12;;;;;;;9.25;7.03;;;5.50;99.90;;;;;;5093792;28;19948;-49
2021/12/06 09:31:38;;;;;;;13.40;10.02;;;5.40;99.90;;;;;;5053255;28;20034;-46
2021/12/06 09:34:04;;;;;;;13.90;9.93;;;5.50;99.90;;;;;;5053063;28;20459;-48
2021/12/06 09:36:31;;;;;;;12.15;9.73;;;5.60;99.90;;;;;;5053197;28;20056;-47
2021/12/06 09:38:57;;;;;;;12.60;9.60;;;5.40;99.90;;;;;;5051715;28;20044;-48
2021/12/06 09:41:27;;;;;;;11.15;9.65;;;5.50;99.90;;;;;;5091350;28;20036;-49
2021/12/06 09:43:57;;;;;;;6.63;5.25;;;5.50;99.90;;;;;;5093479;28;20230;-47
2021/12/06 09:46:25;;;;;;;16.73;11.13;;;5.50;99.90;;;;;;5088441;28;20133;-46
2021/12/06 09:48:51;;;;;;;9.85;7.53;;;5.50;99.90;;;;;;5066655;28;20567;-48
2021/12/06 09:51:27;;;;;;;18.60;13.98;;;5.40;99.90;;;;;;5092678;28;20728;-47
2021/12/06 09:53:56;;;;;;;13.73;10.85;;;5.50;99.90;;;;;;5091661;28;20032;-49
2021/12/06 09:56:25;;;;;;;15.25;11.48;;;5.40;99.90;;;;;;5091662;28;20084;-48
2021/12/06 09:58:52;;;;;;;14.20;11.80;;;5.40;99.90;;;;;;5087611;28;20457;-54
2021/12/06 10:01:27;;;;;;;14.23;10.65;;;5.50;99.90;;;;;;5085920;28;20032;-53
2021/12/06 10:03:55;;;;;;;66.65;33.75;;;5.70;99.90;;;;;;5114707;28;20379;-51
2021/12/06 10:06:22;;;;;;;20.35;12.95;;;5.60;99.90;;;;;;5097161;28;20122;-52
2021/12/06 10:08:50;;;;;;;47.45;28.20;;;5.60;99.90;;;;;;5111739;27;20529;-51
2021/12/06 10:11:18;;;;;;;41.85;27.42;;;5.60;99.90;;;;;;5109616;28;20070;-53
2021/12/06 10:13:45;;;;;;;108.18;65.15;;;5.70;99.90;;;;;;5104003;28;20019;-52
2021/12/06 10:16:11;;;;;;;37.03;27.98;;;5.80;99.90;;;;;;5070724;28;20185;-52
2021/12/06 10:18:37;;;;;;;11.23;7.95;;;5.60;99.90;;;;;;5115939;28;20024;-54
2021/12/06 10:21:04;;;;;;;12.25;10.15;;;5.30;99.90;;;;;;5116150;28;20028;-53
2021/12/06 10:23:32;;;;;;;13.13;10.63;;;5.10;99.90;;;;;;5115789;28;20112;-52
2021/12/06 10:25:57;;;;;;;14.88;12.18;;;5.30;99.90;;;;;;5114539;28;20036;-53
2021/12/06 10:28:28;;;;;;;14.15;10.85;;;5.20;99.90;;;;;;5113990;28;20471;-49
2021/12/06 10:31:01;;;;;;;14.50;11.85;;;5.20;99.90;;;;;;5107325;28;20394;-50
2021/12/06 10:33:29;;;;;;;19.00;14.00;;;5.40;99.90;;;;;;5092212;28;20373;-61
2021/12/06 10:36:02;;;;;;;7.38;5.90;;;5.40;99.90;;;;;;5107299;28;20077;-53
2021/12/06 10:38:34;;;;;;;13.55;10.60;;;5.30;99.90;;;;;;5084935;28;20045;-54
2021/12/06 10:41:25;;;;;;;12.82;10.40;;;5.30;99.90;;;;;;5068032;28;20029;-54
2021/12/06 10:44:09;;;;;;;15.95;11.90;;;5.60;99.90;;;;;;5075124;28;20046;-54
2021/12/06 10:46:37;;;;;;;12.82;9.02;;;5.70;99.90;;;;;;5098330;28;20032;-54
2021/12/06 10:49:06;;;;;;;10.85;7.78;;;5.60;99.90;;;;;;5082892;28;20056;-53
2021/12/06 10:51:32;;;;;;;16.63;13.25;;;5.50;99.90;;;;;;5074512;28;20221;-53
2021/12/06 10:54:05;;;;;;;15.48;12.50;;;5.60;99.90;;;;;;5089897;28;20123;-53
2021/12/06 10:56:41;;;;;;;12.52;10.70;;;5.70;99.90;;;;;;5025162;28;20050;-53
2021/12/06 10:59:17;;;;;;;9.25;6.53;;;5.70;99.90;;;;;;5054747;28;20059;-53
2021/12/06 11:01:43;;;;;;;15.60;12.07;;;5.30;99.90;;;;;;5089102;28;20122;-53
2021/12/06 11:04:13;;;;;;;14.18;11.85;;;5.60;99.90;;;;;;5090634;28;20038;-53
2021/12/06 11:06:44;;;;;;;17.80;13.75;;;5.60;99.90;;;;;;5089435;28;20036;-53
2021/12/06 11:09:21;;;;;;;16.00;12.20;;;5.70;99.90;;;;;;5108038;28;20043;-52
2021/12/06 11:11:51;;;;;;;10.20;7.93;;;5.70;99.90;;;;;;5110676;28;20048;-53
2021/12/06 11:14:22;;;;;;;12.13;10.75;;;5.50;99.90;;;;;;5113602;28;20431;-53
2021/12/06 11:16:54;;;;;;;15.35;12.55;;;5.50;99.90;;;;;;5091818;28;20051;-53
2021/12/06 11:19:23;;;;;;;8.43;6.60;;;5.50;99.90;;;;;;5111197;28;20036;-53
2021/12/06 11:21:50;;;;;;;12.80;9.90;;;5.40;99.90;;;;;;5113887;28;20031;-52
2021/12/06 11:24:39;;;;;;;11.85;9.93;;;5.40;99.90;;;;;;5114137;28;20036;-52
2021/12/06 11:27:20;;;;;;;14.27;11.63;;;5.50;99.90;;;;;;5113424;28;20050;-47
2021/12/06 11:29:51;;;;;;;14.20;10.75;;;5.50;99.90;;;;;;5112552;28;20089;-45
2021/12/06 11:32:19;;;;;;;14.38;11.73;;;5.40;99.90;;;;;;5105408;28;20023;-48
2021/12/06 11:34:58;;;;;;;10.15;6.95;;;5.40;99.90;;;;;;5113790;28;20024;-51
2021/12/06 11:37:28;;;;;;;11.38;10.18;;;5.50;99.90;;;;;;5113482;28;20463;-45
2021/12/06 11:40:06;;;;;;;15.20;11.85;;;5.50;99.90;;;;;;5113877;28;20023;-49
2021/12/06 11:42:46;;;;;;;11.98;9.75;;;5.50;99.90;;;;;;5110349;28;20024;-48
2021/12/06 11:45:12;;;;;;;15.07;11.07;;;5.40;99.90;;;;;;5112835;28;20059;-45
2021/12/06 11:47:37;;;;;;;13.23;10.15;;;5.50;99.90;;;;;;5128097;27;20139;-46
2021/12/06 11:50:05;;;;;;;15.68;11.32;;;5.40;99.90;;;;;;5030896;27;20045;-47
2021/12/06 11:52:34;;;;;;;15.75;11.27;;;5.50;99.90;;;;;;5047891;27;20363;-48
2021/12/06 11:55:11;;;;;;;9.23;7.13;;;5.50;99.90;;;;;;5134597;27;20027;-45
2021/12/06 11:57:41;;;;;;;15.45;12.25;;;5.50;99.90;;;;;;5134093;27;20051;-47
2021/12/06 12:00:20;;;;;;;8.80;5.47;;;5.40;99.90;;;;;;5133791;27;20023;-46
2021/12/06 12:02:54;;;;;;;17.48;12.90;;;5.20;99.90;;;;;;5134082;27;20452;-48
2021/12/06 12:05:37;;;;;;;9.98;7.82;;;5.30;99.90;;;;;;5133687;27;20023;-45
2021/12/06 12:08:13;;;;;;;12.32;10.07;;;5.30;99.90;;;;;;5133494;27;20019;-44
2021/12/06 12:10:42;;;;;;;15.40;11.77;;;5.30;99.90;;;;;;5114464;27;20062;-46
2021/12/06 12:13:10;;;;;;;11.63;9.20;;;5.40;99.90;;;;;;5133767;27;20042;-44
2021/12/06 12:15:37;;;;;;;13.95;11.85;;;5.40;99.90;;;;;;5114037;27;20054;-46
2021/12/06 12:18:04;;;;;;;18.13;12.70;;;5.40;99.90;;;;;;5133548;27;20023;-45
2021/12/06 12:20:31;;;;;;;11.25;8.85;;;5.30;99.90;;;;;;5133747;27;20028;-52
2021/12/06 12:23:04;;;;;;;15.93;12.35;;;5.30;99.90;;;;;;5114525;27;20055;-46
2021/12/06 12:25:34;;;;;;;14.52;12.30;;;5.30;99.90;;;;;;5133455;27;20031;-46
2021/12/06 12:28:14;;;;;;;15.80;12.45;;;5.40;99.90;;;;;;5114805;27;20497;-47
2021/12/06 12:30:41;;;;;;;13.95;10.23;;;5.50;99.90;;;;;;5133431;27;20043;-48
2021/12/06 12:33:08;;;;;;;13.40;10.32;;;5.50;99.90;;;;;;5133830;27;20035;-47
2021/12/06 12:35:38;;;;;;;14.38;11.32;;;5.40;99.90;;;;;;5133492;27;20378;-49
2021/12/06 12:38:05;;;;;;;16.92;13.13;;;5.50;99.90;;;;;;5133061;27;20438;-46
2021/12/06 12:40:48;;;;;;;18.38;13.20;;;5.50;99.90;;;;;;5133244;28;20035;-45
2021/12/06 12:43:25;;;;;;;14.35;11.15;;;5.30;99.90;;;;;;5133515;27;20102;-44
2021/12/06 12:45:57;;;;;;;16.90;12.57;;;5.20;99.90;;;;;;5133527;27;20478;-46
2021/12/06 12:48:26;;;;;;;15.98;12.73;;;5.30;99.90;;;;;;5133409;27;20519;-47
2021/12/06 12:51:04;;;;;;;17.58;12.68;;;5.20;99.90;;;;;;5133562;27;20027;-42
2021/12/06 12:53:43;;;;;;;52.53;31.85;;;5.30;99.90;;;;;;5137179;27;20049;-47
2021/12/06 12:56:41;;;;;;;33.17;22.80;;;5.40;99.90;;;;;;5137906;27;20027;-43
2021/12/06 12:59:17;;;;;;;48.67;29.42;;;5.40;99.90;;;;;;5053842;28;20045;-44
2021/12/06 13:01:45;;;;;;;49.30;31.00;;;5.20;99.90;;;;;;5053781;28;20499;-44